createdAt,value
2023-01-11T00:00:45.658Z,62.10
2023-01-11T00:03:12.560Z,62.98
2023-01-11T00:05:43.646Z,63.37
2023-01-11T00:08:11.101Z,63.32
2023-01-11T00:10:38.117Z,62.48
2023-01-11T00:13:05.247Z,63.32
2023-01-11T00:15:31.828Z,63.85
2023-01-11T00:17:58.841Z,63.21
2023-01-11T00:20:25.638Z,64.77
2023-01-11T00:22:52.357Z,63.90
2023-01-11T00:25:18.940Z,64.30
2023-01-11T00:27:47.407Z,65.42
2023-01-11T00:30:14.127Z,63.61
2023-01-11T00:32:40.926Z,62.64
2023-01-11T00:35:08.801Z,61.30
2023-01-11T00:37:35.749Z,62.09
2023-01-11T00:40:02.500Z,64.16
2023-01-11T00:42:47.795Z,63.18
2023-01-11T00:45:33.356Z,61.84
2023-01-11T00:48:01.124Z,62.26
2023-01-11T00:50:30.873Z,64.59
2023-01-11T00:52:58.807Z,66.68
2023-01-11T00:55:26.526Z,65.35
2023-01-11T00:57:53.392Z,65.80
2023-01-11T01:00:21.620Z,65.68
2023-01-11T01:02:49.306Z,64.09
2023-01-11T01:05:16.487Z,63.65
2023-01-11T01:07:43.667Z,64.95
2023-01-11T01:10:12.106Z,66.37
2023-01-11T01:12:57.336Z,64.33
2023-01-11T01:15:24.344Z,64.89
2023-01-11T01:17:54.695Z,63.84
2023-01-11T01:20:22.445Z,62.66
2023-01-11T01:22:49.661Z,62.64
2023-01-11T01:25:16.553Z,64.76
2023-01-11T01:27:43.176Z,63.71
2023-01-11T01:30:10.430Z,62.95
2023-01-11T01:32:37.046Z,63.60
2023-01-11T01:35:03.761Z,62.67
2023-01-11T01:37:30.363Z,62.48
2023-01-11T01:39:56.946Z,64.50
2023-01-11T01:42:24.209Z,71.08
2023-01-11T01:44:58.266Z,72.28
2023-01-11T01:47:31.934Z,70.55
2023-01-11T01:50:04.622Z,70.36
2023-01-11T01:52:34.039Z,72.59
2023-01-11T01:55:05.698Z,76.15
2023-01-11T01:57:35.179Z,78.73
2023-01-11T02:00:05.349Z,74.96
2023-01-11T02:02:32.184Z,76.27
2023-01-11T02:04:59.553Z,72.47
2023-01-11T02:07:33.186Z,70.56
2023-01-11T02:10:10.759Z,71.21
2023-01-11T02:13:03.030Z,71.67
2023-01-11T02:15:29.911Z,71.24
2023-01-11T02:17:56.528Z,70.17
2023-01-11T02:20:46.131Z,71.34
2023-01-11T02:23:44.886Z,74.52
2023-01-11T02:26:23.767Z,74.44
2023-01-11T02:29:11.180Z,77.65
2023-01-11T02:32:13.952Z,77.69
2023-01-11T02:34:55.783Z,78.55
2023-01-11T02:37:45.026Z,78.14
2023-01-11T02:40:43.177Z,75.94
2023-01-11T02:44:10.183Z,73.49
2023-01-11T02:46:48.322Z,75.80
2023-01-11T02:49:33.458Z,74.22
2023-01-11T02:52:14.156Z,72.13
2023-01-11T02:54:45.685Z,73.25
2023-01-11T02:57:14.270Z,73.32
2023-01-11T02:59:42.135Z,74.96
2023-01-11T03:02:09.881Z,77.04
2023-01-11T03:04:37.550Z,75.80
2023-01-11T03:07:25.605Z,76.63
2023-01-11T03:10:03.876Z,78.49
2023-01-11T03:12:55.165Z,74.59
2023-01-11T03:15:39.980Z,77.26
2023-01-11T03:18:31.300Z,74.97
2023-01-11T03:21:16.999Z,72.37
2023-01-11T03:23:59.224Z,70.91
2023-01-11T03:27:02.668Z,71.43
2023-01-11T03:29:50.835Z,71.08
2023-01-11T03:32:22.942Z,70.33
2023-01-11T03:35:17.465Z,69.71
2023-01-11T03:37:54.839Z,70.01
2023-01-11T03:40:27.835Z,69.95
2023-01-11T03:43:13.680Z,70.57
2023-01-11T03:45:46.573Z,70.21
2023-01-11T03:48:18.175Z,70.28
2023-01-11T03:50:47.669Z,70.94
2023-01-11T03:53:19.705Z,70.54
2023-01-11T03:55:49.940Z,71.97
2023-01-11T03:58:16.606Z,72.49
2023-01-11T04:00:43.852Z,73.40
2023-01-11T04:03:12.660Z,71.82
2023-01-11T04:05:43.795Z,70.78
2023-01-11T04:08:11.339Z,70.42
2023-01-11T04:10:38.192Z,69.58
2023-01-11T04:13:04.782Z,69.66
2023-01-11T04:15:32.747Z,68.95
2023-01-11T04:18:07.205Z,69.05
2023-01-11T04:20:36.771Z,68.92
2023-01-11T04:23:05.369Z,68.72
2023-01-11T04:25:32.647Z,68.05
2023-01-11T04:27:59.666Z,67.89
2023-01-11T04:30:26.387Z,68.08
2023-01-11T04:32:53.542Z,68.45
2023-01-11T04:35:20.136Z,68.90
2023-01-11T04:37:46.831Z,69.36
2023-01-11T04:40:13.623Z,69.42
2023-01-11T04:42:40.216Z,68.17
2023-01-11T04:45:07.279Z,68.02
2023-01-11T04:47:33.955Z,67.85
2023-01-11T04:50:00.620Z,68.33
2023-01-11T04:52:27.318Z,68.09
2023-01-11T04:54:54.106Z,68.72
2023-01-11T04:57:21.317Z,68.16
2023-01-11T04:59:48.805Z,67.19
2023-01-11T05:02:16.491Z,67.15
2023-01-11T05:04:43.421Z,67.98
2023-01-11T05:07:10.877Z,67.58
2023-01-11T05:09:37.759Z,67.67
2023-01-11T05:12:04.557Z,67.97
2023-01-11T05:14:31.178Z,66.63
2023-01-11T05:16:58.916Z,66.85
2023-01-11T05:19:25.655Z,66.65
2023-01-11T05:21:52.286Z,67.44
2023-01-11T05:24:18.869Z,67.37
2023-01-11T05:26:46.266Z,66.85
2023-01-11T05:29:16.489Z,66.90
2023-01-11T05:31:43.165Z,66.40
2023-01-11T05:34:12.669Z,66.16
2023-01-11T05:36:40.334Z,66.41
2023-01-11T05:39:07.392Z,66.81
2023-01-11T05:41:34.587Z,67.61
2023-01-11T05:44:19.719Z,67.85
2023-01-11T05:47:05.062Z,68.17
2023-01-11T05:49:31.676Z,68.82
2023-01-11T05:51:58.297Z,68.25
2023-01-11T05:54:24.858Z,68.12
2023-01-11T05:57:06.435Z,67.95
2023-01-11T05:59:33.040Z,68.37
2023-01-11T06:01:59.662Z,69.24
2023-01-11T06:04:27.471Z,70.32
2023-01-11T06:06:54.116Z,72.06
2023-01-11T06:09:20.659Z,71.37
2023-01-11T06:11:48.217Z,71.56
2023-01-11T06:14:14.896Z,71.46
2023-01-11T06:16:41.553Z,71.07
2023-01-11T06:19:08.138Z,69.95
2023-01-11T06:21:35.560Z,69.48
2023-01-11T06:24:02.128Z,68.70
2023-01-11T06:26:28.871Z,68.82
2023-01-11T06:28:55.583Z,67.95
2023-01-11T06:31:22.258Z,67.96
2023-01-11T06:33:48.936Z,68.30
2023-01-11T06:36:16.118Z,68.30
2023-01-11T06:38:43.305Z,68.51
2023-01-11T06:41:11.450Z,67.70
2023-01-11T06:43:41.101Z,65.68
2023-01-11T06:46:11.874Z,65.53
2023-01-11T06:48:38.760Z,65.99
2023-01-11T06:51:05.600Z,65.24
2023-01-11T06:53:32.195Z,65.73
2023-01-11T06:55:59.027Z,65.95
2023-01-11T06:58:26.298Z,65.20
2023-01-11T07:00:54.487Z,65.88
2023-01-11T07:03:24.166Z,65.33
2023-01-11T07:05:52.615Z,64.84
2023-01-11T07:08:20.649Z,65.30
2023-01-11T07:10:47.638Z,64.99
2023-01-11T07:13:17.948Z,64.11
2023-01-11T07:15:46.831Z,65.08
2023-01-11T07:18:13.441Z,65.43
2023-01-11T07:20:40.546Z,64.83
2023-01-11T07:23:11.155Z,64.04
2023-01-11T07:25:37.903Z,64.40
2023-01-11T07:28:06.996Z,63.88
2023-01-11T07:30:47.920Z,63.92
2023-01-11T07:33:18.885Z,64.01
2023-01-11T07:35:47.852Z,64.68
2023-01-11T07:38:14.514Z,65.29
2023-01-11T07:40:41.804Z,66.19
2023-01-11T07:43:14.437Z,65.79
2023-01-11T07:45:49.844Z,66.24
2023-01-11T07:48:26.115Z,66.60
2023-01-11T07:50:53.166Z,66.80
2023-01-11T07:53:20.101Z,66.98
2023-01-11T07:55:47.296Z,67.40
2023-01-11T07:58:15.202Z,66.15
2023-01-11T08:00:41.987Z,64.38
2023-01-11T08:03:09.130Z,65.06
2023-01-11T08:05:36.382Z,64.75
2023-01-11T08:08:03.355Z,64.58
2023-01-11T08:10:30.060Z,64.22
2023-01-11T08:13:15.469Z,65.01
2023-01-11T08:15:45.303Z,66.52
2023-01-11T08:18:13.084Z,67.44
2023-01-11T08:20:40.530Z,65.73
2023-01-11T08:23:09.622Z,65.26
2023-01-11T08:25:36.691Z,64.91
2023-01-11T08:28:05.207Z,64.71
2023-01-11T08:30:32.246Z,64.83
2023-01-11T08:33:01.507Z,64.79
2023-01-11T08:35:28.937Z,64.58
2023-01-11T08:37:56.198Z,64.99
2023-01-11T08:40:25.849Z,64.48
2023-01-11T08:42:57.139Z,65.20
2023-01-11T08:45:24.191Z,64.14
2023-01-11T08:47:51.931Z,64.07
2023-01-11T08:50:20.231Z,63.60
2023-01-11T08:52:48.410Z,63.93
2023-01-11T08:55:15.056Z,64.95
2023-01-11T08:57:41.635Z,65.07
2023-01-11T09:00:11.898Z,62.86
2023-01-11T09:02:38.626Z,64.59
2023-01-11T09:05:05.663Z,64.37
2023-01-11T09:07:32.261Z,64.15
2023-01-11T09:09:58.855Z,62.92
2023-01-11T09:12:27.131Z,63.00
2023-01-11T09:14:53.843Z,63.08
2023-01-11T09:17:20.432Z,62.73
2023-01-11T09:19:47.011Z,62.91
2023-01-11T09:22:13.616Z,63.42
2023-01-11T09:24:40.247Z,63.94
2023-01-11T09:27:08.777Z,64.39
2023-01-11T09:29:37.267Z,65.24
2023-01-11T09:32:04.891Z,65.02
2023-01-11T09:34:31.836Z,64.97
2023-01-11T09:37:00.695Z,64.39
2023-01-11T09:39:28.819Z,64.67
2023-01-11T09:42:11.278Z,66.24
2023-01-11T09:44:50.386Z,64.50
2023-01-11T09:47:38.499Z,64.01
2023-01-11T09:50:13.124Z,63.86
2023-01-11T09:52:43.841Z,62.90
2023-01-11T09:55:20.112Z,62.57
2023-01-11T09:57:46.719Z,62.41
2023-01-11T10:00:26.571Z,62.77
2023-01-11T10:03:14.524Z,62.00
2023-01-11T10:05:51.516Z,63.66
2023-01-11T10:18:33.350Z,62.39
2023-01-11T10:18:34.255Z,62.12
2023-01-11T10:21:15.152Z,62.16
2023-01-11T10:23:49.655Z,60.73
2023-01-11T10:26:27.628Z,60.31
2023-01-11T10:29:21.436Z,60.91
2023-01-11T10:32:13.098Z,61.11
2023-01-11T10:35:13.706Z,60.65
2023-01-11T10:37:59.739Z,61.51
2023-01-11T10:40:57.981Z,58.55
2023-01-11T10:43:26.875Z,59.84
2023-01-11T10:45:58.177Z,59.34
2023-01-11T10:48:36.887Z,60.33
2023-01-11T10:51:30.203Z,61.35
2023-01-11T10:54:00.098Z,60.86
2023-01-11T10:57:03.556Z,60.21
2023-01-11T10:59:59.423Z,61.11
2023-01-11T11:03:00.028Z,59.86
2023-01-11T11:05:52.239Z,60.65
2023-01-11T11:08:26.479Z,60.54
2023-01-11T11:11:00.558Z,60.69
2023-01-11T11:13:45.671Z,60.72
2023-01-11T11:16:23.883Z,60.32
2023-01-11T11:18:52.648Z,60.67
2023-01-11T11:21:32.975Z,59.28
2023-01-11T11:24:06.568Z,59.08
2023-01-11T11:26:41.353Z,59.50
2023-01-11T11:29:10.950Z,60.23
2023-01-11T11:31:43.740Z,59.47
2023-01-11T11:34:22.368Z,58.40
2023-01-11T11:36:51.649Z,59.13
2023-01-11T11:39:18.212Z,59.73
2023-01-11T11:41:50.436Z,57.93
2023-01-11T11:44:35.543Z,57.61
2023-01-11T11:47:16.576Z,59.12
2023-01-11T11:49:43.576Z,60.14
2023-01-11T11:52:14.618Z,59.17
2023-01-11T11:54:49.846Z,59.91
2023-01-11T11:57:21.271Z,58.05
2023-01-11T11:59:50.569Z,57.23
2023-01-11T12:02:29.836Z,57.38
2023-01-11T12:05:00.024Z,56.42
2023-01-11T12:07:49.868Z,56.51
2023-01-11T12:10:24.359Z,56.53
2023-01-11T12:12:59.609Z,55.71
2023-01-11T12:15:31.498Z,56.58
2023-01-11T12:18:22.071Z,56.78
2023-01-11T12:20:49.636Z,56.98
2023-01-11T12:23:19.367Z,56.98
2023-01-11T12:26:12.695Z,59.19
2023-01-11T12:29:18.844Z,59.22
2023-01-11T12:31:57.429Z,60.22
2023-01-11T12:34:26.683Z,59.53
2023-01-11T12:37:26.916Z,59.14
2023-01-11T12:40:24.555Z,59.40
2023-01-11T12:42:51.164Z,59.64
2023-01-11T12:45:32.789Z,60.27
2023-01-11T12:48:02.219Z,61.51
2023-01-11T12:50:32.867Z,61.62
2023-01-11T12:53:37.035Z,61.73
2023-01-11T12:56:57.423Z,60.98
2023-01-11T13:00:13.877Z,60.54
2023-01-11T13:02:49.234Z,61.48
2023-01-11T13:05:38.146Z,61.57
2023-01-11T13:08:21.913Z,60.74
2023-01-11T13:11:01.935Z,60.04
2023-01-11T13:13:48.752Z,59.92
2023-01-11T13:16:43.058Z,60.85
2023-01-11T13:19:22.191Z,60.86
2023-01-11T13:21:55.327Z,61.41
2023-01-11T13:24:28.953Z,59.71
2023-01-11T13:27:01.511Z,59.10
2023-01-11T13:29:33.122Z,59.21
2023-01-11T13:32:06.921Z,59.57
2023-01-11T13:34:49.139Z,59.72
2023-01-11T13:37:31.267Z,60.25
2023-01-11T13:40:01.835Z,59.72
2023-01-11T13:42:37.996Z,59.36
2023-01-11T13:45:10.541Z,59.91
2023-01-11T13:47:42.187Z,60.49
2023-01-11T13:50:20.419Z,61.03
2023-01-11T13:53:24.926Z,60.99
2023-01-11T13:55:59.526Z,61.35
2023-01-11T13:58:36.956Z,61.73
2023-01-11T14:01:14.439Z,60.83
2023-01-11T14:03:52.698Z,60.93
2023-01-11T14:06:54.331Z,61.58
2023-01-11T14:09:53.970Z,60.58
2023-01-11T14:12:46.699Z,59.59
2023-01-11T14:15:13.282Z,61.72
2023-01-11T14:18:05.702Z,60.82
2023-01-11T14:20:44.823Z,60.82
2023-01-11T14:23:20.051Z,60.19
2023-01-11T14:26:16.399Z,60.20
2023-01-11T14:28:48.855Z,61.73
2023-01-11T14:31:36.432Z,61.79
2023-01-11T14:34:14.876Z,61.05
2023-01-11T14:36:56.409Z,60.71
2023-01-11T14:39:41.954Z,60.76
2023-01-11T14:42:30.739Z,60.71
2023-01-11T14:45:13.793Z,61.13
2023-01-11T14:47:54.651Z,61.99
2023-01-11T14:50:21.173Z,61.21
2023-01-11T14:52:51.146Z,61.00
2023-01-11T14:55:27.534Z,61.71
2023-01-11T14:57:56.907Z,61.60
2023-01-11T15:00:23.439Z,62.53
2023-01-11T15:03:20.929Z,62.14
2023-01-11T15:05:51.879Z,62.37
2023-01-11T15:08:27.472Z,61.83
2023-01-11T15:11:07.742Z,61.66
2023-01-11T15:13:43.126Z,62.53
2023-01-11T15:16:47.081Z,62.57
2023-01-11T15:19:33.642Z,62.26
2023-01-11T15:22:03.193Z,61.77
2023-01-11T15:24:34.339Z,61.62
2023-01-11T15:27:02.303Z,62.67
2023-01-11T15:29:40.916Z,64.23
2023-01-11T15:32:26.178Z,62.68
2023-01-11T15:34:53.104Z,63.76
2023-01-11T15:37:39.861Z,62.63
2023-01-11T15:40:19.077Z,62.97
2023-01-11T15:43:07.210Z,62.33
2023-01-11T15:45:36.577Z,62.83
2023-01-11T15:48:22.045Z,62.97
2023-01-11T15:51:07.609Z,62.05
2023-01-11T15:53:37.083Z,62.50
2023-01-11T15:56:22.130Z,62.95
2023-01-11T15:59:09.376Z,63.15
2023-01-11T16:01:54.553Z,63.63
2023-01-11T16:04:32.016Z,63.10
2023-01-11T16:07:05.469Z,62.02
2023-01-11T16:09:34.887Z,62.07
2023-01-11T16:12:18.949Z,61.49
2023-01-11T16:14:51.569Z,60.85
2023-01-11T16:17:22.660Z,61.63
2023-01-11T16:19:55.410Z,62.54
2023-01-11T16:22:25.889Z,62.09
2023-01-11T16:24:59.869Z,61.90
2023-01-11T16:27:32.784Z,61.28
2023-01-11T16:30:00.780Z,61.11
2023-01-11T16:32:32.846Z,60.82
2023-01-11T16:35:02.908Z,62.19
2023-01-11T16:37:41.929Z,61.93
2023-01-11T16:40:16.575Z,61.92
2023-01-11T16:42:52.581Z,62.69
2023-01-11T16:45:24.746Z,62.10
2023-01-11T16:48:10.654Z,62.13
2023-01-11T16:50:37.335Z,62.25
2023-01-11T16:53:14.008Z,61.30
2023-01-11T16:56:02.970Z,61.56
2023-01-11T16:58:33.130Z,61.60
2023-01-11T17:01:05.089Z,61.53
2023-01-11T17:03:47.980Z,61.57
2023-01-11T17:06:15.028Z,62.00
2023-01-11T17:08:44.797Z,63.48
2023-01-11T17:11:36.642Z,62.76
2023-01-11T17:14:43.122Z,62.28
2023-01-11T17:17:11.210Z,62.06
2023-01-11T17:19:47.547Z,61.42
2023-01-11T17:22:17.024Z,62.53
2023-01-11T17:24:59.771Z,62.94
2023-01-11T17:27:40.833Z,63.42
2023-01-11T17:30:24.977Z,63.50
2023-01-11T17:32:54.569Z,63.30
2023-01-11T17:35:23.933Z,63.06
2023-01-11T17:37:52.261Z,63.08
2023-01-11T17:40:23.640Z,63.31
2023-01-11T17:43:09.914Z,63.92
2023-01-11T17:45:37.536Z,64.49
2023-01-11T17:48:15.832Z,63.82
2023-01-11T17:51:03.199Z,63.65
2023-01-11T17:53:35.010Z,63.49
2023-01-11T17:56:47.699Z,63.46
2023-01-11T17:59:19.297Z,63.24
2023-01-11T18:01:51.519Z,63.39
2023-01-11T18:04:21.018Z,63.52
2023-01-11T18:06:49.126Z,63.86
2023-01-11T18:09:23.721Z,63.31
2023-01-11T18:11:52.339Z,64.04
2023-01-11T18:14:23.933Z,63.83
2023-01-11T18:17:02.506Z,64.01
2023-01-11T18:19:42.100Z,63.75
2023-01-11T18:22:29.685Z,64.27
2023-01-11T18:25:04.290Z,64.54
2023-01-11T18:27:35.145Z,63.62
2023-01-11T18:30:07.683Z,64.20
2023-01-11T18:32:38.147Z,64.37
2023-01-11T18:35:12.400Z,66.01
2023-01-11T18:37:39.002Z,65.25
2023-01-11T18:40:06.272Z,65.74
2023-01-11T18:42:34.033Z,64.20
2023-01-11T18:45:00.679Z,62.80
2023-01-11T18:47:29.799Z,63.51
2023-01-11T18:49:57.147Z,64.54
2023-01-11T18:52:28.291Z,65.00
2023-01-11T18:54:56.076Z,65.17
2023-01-11T18:57:23.646Z,65.80
2023-01-11T18:59:54.599Z,65.88
2023-01-11T19:02:42.506Z,64.96
2023-01-11T19:05:19.520Z,64.75
2023-01-11T19:07:46.906Z,64.53
2023-01-11T19:10:21.740Z,64.47
2023-01-11T19:12:49.335Z,64.17
2023-01-11T19:15:16.487Z,64.44
2023-01-11T19:17:43.641Z,64.07
2023-01-11T19:20:12.324Z,63.90
2023-01-11T19:22:39.340Z,64.17
2023-01-11T19:25:08.306Z,65.28
2023-01-11T19:27:36.397Z,65.22
2023-01-11T19:30:05.361Z,65.07
2023-01-11T19:32:32.030Z,64.91
2023-01-11T19:35:00.992Z,64.15
2023-01-11T19:37:30.157Z,64.24
2023-01-11T19:39:56.851Z,63.57
2023-01-11T19:42:23.951Z,63.71
2023-01-11T19:44:51.368Z,63.44
2023-01-11T19:47:18.314Z,65.44
2023-01-11T19:49:46.003Z,66.02
2023-01-11T19:52:18.896Z,64.73
2023-01-11T19:54:47.004Z,65.23
2023-01-11T19:57:17.993Z,64.58
2023-01-11T19:59:44.957Z,64.53
2023-01-11T20:02:13.636Z,64.32
2023-01-11T20:04:40.880Z,63.58
2023-01-11T20:07:08.922Z,64.52
2023-01-11T20:09:37.855Z,64.53
2023-01-11T20:12:06.928Z,64.21
2023-01-11T20:14:34.150Z,63.78
2023-01-11T20:17:01.040Z,63.15
2023-01-11T20:19:27.934Z,63.55
2023-01-11T20:21:55.941Z,62.88
2023-01-11T20:24:29.539Z,62.50
2023-01-11T20:26:58.700Z,62.73
2023-01-11T20:29:26.228Z,63.67
2023-01-11T20:31:52.939Z,64.71
2023-01-11T20:34:20.280Z,64.90
2023-01-11T20:36:48.588Z,64.12
2023-01-11T20:39:20.624Z,62.70
2023-01-11T20:41:47.419Z,63.62
2023-01-11T20:44:19.720Z,63.36
2023-01-11T20:46:48.301Z,63.21
2023-01-11T20:49:16.215Z,62.61
2023-01-11T20:51:43.860Z,62.61
2023-01-11T20:54:11.244Z,62.36
2023-01-11T20:56:38.971Z,61.83
2023-01-11T20:59:07.581Z,62.06
2023-01-11T21:01:34.784Z,62.79
2023-01-11T21:04:04.595Z,62.64
2023-01-11T21:06:32.851Z,63.18
2023-01-11T21:09:01.462Z,63.10
2023-01-11T21:11:28.398Z,62.91
2023-01-11T21:13:55.991Z,63.96
2023-01-11T21:16:28.043Z,62.68
2023-01-11T21:19:00.501Z,63.07
2023-01-11T21:21:28.925Z,63.74
2023-01-11T21:23:57.645Z,64.06
2023-01-11T21:26:25.159Z,64.34
2023-01-11T21:28:55.671Z,63.53
2023-01-11T21:31:22.705Z,63.04
2023-01-11T21:33:50.287Z,63.21
2023-01-11T21:36:20.119Z,63.45
2023-01-11T21:38:46.814Z,63.80
2023-01-11T21:41:42.191Z,63.60
2023-01-11T21:44:10.543Z,63.74
2023-01-11T21:46:38.017Z,64.56
2023-01-11T21:49:05.466Z,64.74
2023-01-11T21:51:32.638Z,64.53
2023-01-11T21:53:59.631Z,64.13
2023-01-11T21:56:26.425Z,64.08
2023-01-11T21:58:53.137Z,64.11
2023-01-11T22:01:23.402Z,64.48
2023-01-11T22:03:50.198Z,63.89
2023-01-11T22:06:17.501Z,63.75
2023-01-11T22:08:47.562Z,64.00
2023-01-11T22:11:16.199Z,64.54
2023-01-11T22:13:43.902Z,64.44
2023-01-11T22:16:15.977Z,63.96
2023-01-11T22:18:43.419Z,63.22
2023-01-11T22:21:12.995Z,62.62
2023-01-11T22:23:40.525Z,63.11
2023-01-11T22:26:10.255Z,62.86
2023-01-11T22:28:55.979Z,62.70
2023-01-11T22:31:22.944Z,62.38
2023-01-11T22:33:49.690Z,62.77
2023-01-11T22:36:16.702Z,63.32
2023-01-11T22:38:43.338Z,63.92
2023-01-11T22:41:10.099Z,63.81
2023-01-11T22:43:36.734Z,64.90
2023-01-11T22:46:03.647Z,64.78
2023-01-11T22:48:31.545Z,64.12
2023-01-11T22:50:58.666Z,63.50
2023-01-11T22:53:25.262Z,64.84
2023-01-11T22:55:52.051Z,65.74
2023-01-11T22:58:18.861Z,64.95
2023-01-11T23:00:45.474Z,64.64
2023-01-11T23:03:12.289Z,64.56
2023-01-11T23:05:45.259Z,66.20
2023-01-11T23:08:13.792Z,66.42
2023-01-11T23:10:40.628Z,66.34
2023-01-11T23:13:52.877Z,66.06
2023-01-11T23:16:31.448Z,66.24
2023-01-11T23:18:58.479Z,66.90
2023-01-11T23:21:34.718Z,68.43
2023-01-11T23:24:02.805Z,66.93
2023-01-11T23:26:29.559Z,66.83
2023-01-11T23:28:56.263Z,65.91
2023-01-11T23:31:24.622Z,68.01
2023-01-11T23:33:56.487Z,67.48
2023-01-11T23:36:26.766Z,68.26
2023-01-11T23:38:53.395Z,68.10
2023-01-11T23:41:40.373Z,67.99
2023-01-11T23:44:12.388Z,67.15
2023-01-11T23:46:58.326Z,66.11
2023-01-11T23:49:26.005Z,66.20
2023-01-11T23:51:53.668Z,66.10
2023-01-11T23:54:20.554Z,66.65
2023-01-11T23:56:47.375Z,66.11
2023-01-11T23:59:14.049Z,66.00
